Terminal Aerodrome Forecast
Issued by NWS

Home | Current Version | Previous Version | Text Only | Print | Product List | Glossary On
Versions: 1 2 3 4 5 6 7 8 9 10 11 12 13 14 15 16 17 18 19
000
FTAK31 PANC 272339
TAFAVD
TAF
PAVD 272339Z 2800/2824 VRB04KT P6SM -RA SCT015 OVC050
     FM280200 VRB05KT 5SM -RA BR BKN025
     FM280900 VRB03KT P6SM -RA SCT025 BKN040
     FM281200 VRB06KT P6SM -SHRA BKN050
      AMD LTD TO CLD VIS AND WIND=

USA.gov is the U.S. government's official web portal to all federal, state and local government web resources and services.